Time;durP1;ratioP1;P1;durP2;ratioP2;P2;SDS_P1;SDS_P2;PMS_P1;PMS_P2;Temp;Humidity;BMP_temperature;BMP_pressure;BME280_temperature;BME280_humidity;BME280_pressure;Samples;Min_cycle;Max_cycle;Signal;HPM_P1;HPM_P2
2022/07/16 00:03:14;;;;;;;3.45;3.00;;;24.30;99.90;;;;;;4976092;28;20527;-91
2022/07/16 00:05:40;;;;;;;3.15;2.35;;;24.30;99.90;;;;;;4959912;28;20038;-90
2022/07/16 00:08:07;;;;;;;4.75;2.72;;;24.30;99.90;;;;;;4960100;28;20038;-91
2022/07/16 00:10:34;;;;;;;3.90;2.50;;;24.30;99.90;;;;;;4959713;28;20492;-91
2022/07/16 00:13:02;;;;;;;5.25;2.53;;;24.20;99.90;;;;;;4959868;28;20508;-92
2022/07/16 00:15:32;;;;;;;3.17;2.65;;;24.10;99.90;;;;;;4959758;28;20030;-90
2022/07/16 00:20:44;;;;;;;4.35;2.67;;;23.90;99.90;;;;;;4975700;28;20042;-90
2022/07/16 00:23:10;;;;;;;4.35;3.10;;;23.90;99.90;;;;;;4959796;28;20029;-89
2022/07/16 00:25:37;;;;;;;2.80;2.55;;;23.80;99.90;;;;;;4959783;28;20400;-90
2022/07/16 00:28:03;;;;;;;6.53;2.78;;;23.70;99.90;;;;;;4956201;28;20117;-90
2022/07/16 00:30:31;;;;;;;4.72;2.92;;;23.70;99.90;;;;;;4959486;28;20231;-88
2022/07/16 00:32:57;;;;;;;3.95;3.00;;;23.70;99.90;;;;;;4959377;28;20034;-91
2022/07/16 00:35:24;;;;;;;7.35;2.85;;;23.60;99.90;;;;;;4959543;28;20041;-91
2022/07/16 00:37:50;;;;;;;3.05;2.70;;;23.60;99.90;;;;;;4959162;28;20038;-89
2022/07/16 00:40:17;;;;;;;3.13;2.72;;;23.60;99.90;;;;;;4960458;28;20034;-88
2022/07/16 00:42:44;;;;;;;4.40;3.00;;;23.50;99.90;;;;;;4960067;28;20027;-91
2022/07/16 00:45:11;;;;;;;6.63;2.80;;;23.40;99.90;;;;;;4959707;28;20027;-90
2022/07/16 00:47:40;;;;;;;7.30;2.80;;;23.40;99.90;;;;;;4959273;28;20027;-89
2022/07/16 00:50:08;;;;;;;6.20;3.00;;;23.30;99.90;;;;;;4959291;28;20031;-89
2022/07/16 00:52:38;;;;;;;6.20;3.70;;;23.30;99.90;;;;;;4959283;28;20023;-88
2022/07/16 00:55:05;;;;;;;3.85;3.17;;;23.20;99.90;;;;;;4959313;28;20035;-89
2022/07/16 00:57:32;;;;;;;3.60;3.20;;;23.20;99.90;;;;;;4958256;28;20118;-89
2022/07/16 00:59:58;;;;;;;3.95;2.85;;;23.10;99.90;;;;;;4959644;28;20035;-88
2022/07/16 01:02:25;;;;;;;2.88;2.65;;;23.10;99.90;;;;;;4978767;28;20038;-90
2022/07/16 01:04:53;;;;;;;3.60;3.00;;;23.10;99.90;;;;;;4962273;28;20062;-90
2022/07/16 01:07:22;;;;;;;4.50;2.97;;;23.00;99.90;;;;;;4962053;28;20022;-90
2022/07/16 01:09:50;;;;;;;4.03;2.47;;;23.00;99.90;;;;;;4962267;28;20058;-88
2022/07/16 01:12:18;;;;;;;6.07;2.60;;;23.00;99.90;;;;;;4962025;28;20049;-89
2022/07/16 01:14:45;;;;;;;5.55;2.97;;;23.00;99.90;;;;;;4962053;28;20034;-89
2022/07/16 01:17:12;;;;;;;5.70;2.85;;;23.00;99.90;;;;;;4961965;28;20038;-90
2022/07/16 01:19:39;;;;;;;2.80;2.50;;;23.00;99.90;;;;;;4962216;28;20018;-90
2022/07/16 01:22:05;;;;;;;3.60;2.53;;;23.00;99.90;;;;;;4961905;28;20030;-90
2022/07/16 01:24:32;;;;;;;3.13;2.58;;;22.90;99.90;;;;;;4964065;28;20022;-90
2022/07/16 01:26:59;;;;;;;2.83;2.63;;;22.90;99.90;;;;;;4961761;28;20030;-89
2022/07/16 01:29:29;;;;;;;4.28;3.05;;;22.90;99.90;;;;;;4961695;28;20022;-91
2022/07/16 01:31:56;;;;;;;4.20;2.92;;;22.80;99.90;;;;;;4977563;28;20030;-91
2022/07/16 01:34:25;;;;;;;4.55;2.90;;;22.80;99.90;;;;;;4961629;28;20027;-89
2022/07/16 01:37:07;;;;;;;3.78;2.90;;;22.70;99.90;;;;;;4977900;28;20053;-90
2022/07/16 01:39:37;;;;;;;5.75;2.58;;;22.70;99.90;;;;;;4961669;28;20053;-91
2022/07/16 01:42:07;;;;;;;3.97;2.83;;;22.70;99.90;;;;;;4961420;28;20034;-90
2022/07/16 01:44:38;;;;;;;4.35;2.92;;;22.70;99.90;;;;;;4961530;28;20491;-90
2022/07/16 01:47:06;;;;;;;5.18;3.03;;;22.70;99.90;;;;;;4961691;28;20037;-89
2022/07/16 01:49:37;;;;;;;4.63;2.75;;;22.70;99.90;;;;;;4961503;28;20030;-88
2022/07/16 01:52:10;;;;;;;3.92;2.90;;;22.70;99.90;;;;;;4977623;28;20033;-90
2022/07/16 01:54:51;;;;;;;4.20;2.60;;;22.70;99.90;;;;;;4961654;28;20069;-90
2022/07/16 01:57:20;;;;;;;4.20;3.10;;;22.60;99.90;;;;;;4961478;28;20499;-90
2022/07/16 01:59:47;;;;;;;7.25;2.90;;;22.60;99.90;;;;;;4961300;28;20035;-89
2022/07/16 02:02:14;;;;;;;6.22;3.28;;;22.60;99.90;;;;;;4961194;28;20137;-89
2022/07/16 02:04:42;;;;;;;3.95;3.10;;;22.60;99.90;;;;;;4961314;28;20058;-91
2022/07/16 02:07:09;;;;;;;4.75;3.28;;;22.50;99.90;;;;;;4961498;28;20404;-89
2022/07/16 02:09:37;;;;;;;3.30;2.95;;;22.50;99.90;;;;;;4963456;28;20026;-90
2022/07/16 02:12:04;;;;;;;4.10;3.08;;;22.50;99.90;;;;;;4966666;28;20039;-89
2022/07/16 02:14:31;;;;;;;4.63;3.25;;;22.50;99.90;;;;;;4965245;28;20494;-89
2022/07/16 02:17:10;;;;;;;4.47;3.70;;;22.40;99.90;;;;;;4980930;28;20038;-88
2022/07/16 02:19:36;;;;;;;4.60;3.30;;;22.40;99.90;;;;;;4965172;28;20022;-88
2022/07/16 02:22:03;;;;;;;5.38;3.28;;;22.40;99.90;;;;;;4965036;28;20030;-91
2022/07/16 02:24:29;;;;;;;3.45;3.10;;;22.40;99.90;;;;;;4965148;28;20054;-88
2022/07/16 02:26:56;;;;;;;4.68;3.55;;;22.40;99.90;;;;;;4965030;28;20027;-89
2022/07/16 02:29:22;;;;;;;7.22;3.72;;;22.30;99.90;;;;;;4964965;28;20037;-91
2022/07/16 02:31:52;;;;;;;5.35;3.10;;;22.30;99.90;;;;;;4964950;28;20026;-92
2022/07/16 02:34:19;;;;;;;6.38;3.10;;;22.30;99.90;;;;;;4980923;28;20093;-90
2022/07/16 02:37:06;;;;;;;6.22;3.15;;;22.10;99.90;;;;;;4964944;28;20038;-92
2022/07/16 02:39:32;;;;;;;4.53;3.17;;;22.10;99.90;;;;;;4950300;28;20113;-90
2022/07/16 02:41:59;;;;;;;3.28;2.90;;;22.00;99.90;;;;;;4964778;28;20392;-91
2022/07/16 02:44:26;;;;;;;7.00;3.30;;;21.90;99.90;;;;;;4980641;28;20034;-90
2022/07/16 02:46:53;;;;;;;3.15;2.85;;;21.90;99.90;;;;;;4964742;28;20022;-89
2022/07/16 02:49:20;;;;;;;4.60;3.40;;;21.80;99.90;;;;;;4980629;28;20037;-89
2022/07/16 02:51:46;;;;;;;4.88;3.15;;;21.80;99.90;;;;;;4964574;28;20109;-90
2022/07/16 02:54:13;;;;;;;5.90;3.67;;;21.90;99.90;;;;;;4982071;28;20039;-91
2022/07/16 02:56:39;;;;;;;5.18;2.90;;;21.90;99.90;;;;;;4964448;28;20038;-88
2022/07/16 02:59:24;;;;;;;5.68;3.40;;;21.90;99.90;;;;;;4964373;28;20027;-90
2022/07/16 03:01:51;;;;;;;7.90;3.35;;;21.90;99.90;;;;;;4976956;28;20105;-92
2022/07/16 03:04:18;;;;;;;5.38;3.33;;;21.90;99.90;;;;;;4961138;28;20093;-90
2022/07/16 03:06:44;;;;;;;4.38;3.22;;;21.80;99.90;;;;;;4961153;28;20544;-89
2022/07/16 03:09:11;;;;;;;5.38;3.20;;;21.80;99.90;;;;;;4960958;28;20039;-90
2022/07/16 03:11:43;;;;;;;4.15;3.05;;;21.80;99.90;;;;;;4960952;28;20432;-91
2022/07/16 03:14:10;;;;;;;6.00;3.63;;;21.80;99.90;;;;;;4960984;28;20038;-90
2022/07/16 03:16:37;;;;;;;6.15;3.17;;;21.80;99.90;;;;;;4960725;28;20484;-89
2022/07/16 03:19:03;;;;;;;4.93;2.92;;;21.70;99.90;;;;;;4961002;28;20050;-89
2022/07/16 03:21:30;;;;;;;4.90;3.00;;;21.70;99.90;;;;;;4960157;28;20042;-89
2022/07/16 03:23:57;;;;;;;5.55;3.30;;;21.70;99.90;;;;;;4960942;28;20563;-91
2022/07/16 03:26:23;;;;;;;6.75;2.92;;;21.60;99.90;;;;;;4960779;28;20503;-89
2022/07/16 03:28:50;;;;;;;5.60;3.15;;;21.60;99.90;;;;;;4960711;28;20027;-89
2022/07/16 03:31:19;;;;;;;6.35;3.20;;;21.50;99.90;;;;;;4960579;28;20027;-91
2022/07/16 03:33:45;;;;;;;4.70;3.17;;;21.50;99.90;;;;;;4960503;28;20030;-89
2022/07/16 03:36:12;;;;;;;5.35;3.10;;;21.40;99.90;;;;;;4960518;28;20054;-89
2022/07/16 03:41:23;;;;;;;4.18;3.08;;;21.50;99.90;;;;;;4977832;28;20034;-90
2022/07/16 03:43:50;;;;;;;4.63;3.33;;;21.60;99.90;;;;;;4960249;28;20038;-90
2022/07/16 03:46:20;;;;;;;3.55;3.25;;;21.60;99.90;;;;;;4960415;28;20508;-91
2022/07/16 03:49:05;;;;;;;4.65;3.40;;;21.70;99.90;;;;;;4960163;28;20035;-90
2022/07/16 03:51:34;;;;;;;3.80;3.20;;;21.70;99.90;;;;;;4940483;29;20130;-89
2022/07/16 03:54:04;;;;;;;3.72;3.20;;;21.70;99.90;;;;;;4924456;29;20043;-90
2022/07/16 03:56:34;;;;;;;3.47;3.10;;;21.80;99.90;;;;;;4924449;29;20051;-90
2022/07/16 03:59:01;;;;;;;5.82;3.08;;;21.80;99.90;;;;;;4940446;29;20083;-89
2022/07/16 04:01:27;;;;;;;5.65;3.25;;;21.80;99.90;;;;;;4912320;29;20127;-89
2022/07/16 04:03:54;;;;;;;4.40;3.30;;;21.80;99.90;;;;;;4936790;29;20042;-89
2022/07/16 04:06:21;;;;;;;4.93;3.30;;;21.80;99.90;;;;;;4921029;29;20067;-89
2022/07/16 04:08:47;;;;;;;6.45;3.25;;;21.80;99.90;;;;;;4920885;29;20107;-90
2022/07/16 04:11:14;;;;;;;7.57;3.17;;;21.70;99.90;;;;;;4920839;29;20489;-88
2022/07/16 04:13:42;;;;;;;6.30;3.28;;;21.60;99.90;;;;;;4920902;29;20043;-90
2022/07/16 04:16:12;;;;;;;4.05;3.55;;;21.60;99.90;;;;;;4920812;29;20130;-91
2022/07/16 04:18:39;;;;;;;7.53;3.78;;;21.60;99.90;;;;;;4921424;29;20565;-91
2022/07/16 04:21:12;;;;;;;4.18;3.67;;;21.60;99.90;;;;;;4921214;29;20525;-89
2022/07/16 04:23:38;;;;;;;5.38;3.38;;;21.60;99.90;;;;;;4937653;29;20063;-89
2022/07/16 04:26:05;;;;;;;5.78;3.45;;;21.70;99.90;;;;;;4920744;29;20593;-91
2022/07/16 04:28:32;;;;;;;9.63;3.60;;;21.80;99.90;;;;;;4943142;29;20062;-89
2022/07/16 04:30:58;;;;;;;4.35;3.42;;;21.90;99.90;;;;;;4940354;29;20062;-89
2022/07/16 04:33:25;;;;;;;5.72;3.35;;;22.00;99.90;;;;;;4956061;28;20027;-90
2022/07/16 04:35:52;;;;;;;6.78;3.28;;;22.10;99.90;;;;;;4940820;29;20035;-90
2022/07/16 04:38:20;;;;;;;6.63;3.50;;;22.30;99.90;;;;;;4940290;29;20035;-91
2022/07/16 04:40:46;;;;;;;7.07;3.22;;;22.50;99.90;;;;;;4956068;29;20054;-89
2022/07/16 04:43:19;;;;;;;4.43;3.40;;;22.90;99.90;;;;;;4940079;29;20033;-91
2022/07/16 04:45:46;;;;;;;4.23;2.90;;;23.70;99.90;;;;;;4939956;29;20023;-90
2022/07/16 04:48:13;;;;;;;6.32;3.58;;;24.60;99.90;;;;;;4939936;29;20055;-90
2022/07/16 04:50:39;;;;;;;8.25;4.10;;;25.90;99.90;;;;;;4940078;29;20031;-90
2022/07/16 04:53:12;;;;;;;6.18;5.10;;;27.40;99.90;;;;;;4940217;29;20055;-90
2022/07/16 04:55:39;;;;;;;6.38;5.88;;;28.70;99.90;;;;;;4955836;29;20086;-90
2022/07/16 04:58:05;;;;;;;9.77;7.15;;;29.70;99.90;;;;;;4939794;29;20042;-90
2022/07/16 05:00:32;;;;;;;8.00;7.30;;;30.50;99.90;;;;;;4960331;28;20121;-91
2022/07/16 05:02:59;;;;;;;8.55;7.30;;;31.40;99.90;;;;;;4959034;28;20575;-91
2022/07/16 05:05:34;;;;;;;8.88;8.25;;;31.80;99.90;;;;;;4958997;28;20118;-89
2022/07/16 05:08:03;;;;;;;9.07;8.48;;;32.00;99.90;;;;;;4958983;28;20463;-90
2022/07/16 05:10:30;;;;;;;7.90;7.30;;;32.30;99.90;;;;;;4959964;28;20034;-89
2022/07/16 05:12:58;;;;;;;8.10;7.28;;;32.80;99.90;;;;;;4958885;28;20034;-90
2022/07/16 05:15:34;;;;;;;8.10;7.50;;;32.70;99.90;;;;;;4958871;28;20098;-91
2022/07/16 05:18:04;;;;;;;8.63;7.82;;;33.10;99.90;;;;;;4958572;28;20074;-91
2022/07/16 05:20:31;;;;;;;9.02;8.30;;;33.20;99.90;;;;;;4958792;28;20440;-92
2022/07/16 05:22:58;;;;;;;8.55;7.85;;;33.30;99.90;;;;;;4959029;28;20397;-91
2022/07/16 05:25:25;;;;;;;8.43;7.63;;;32.90;99.90;;;;;;4958750;28;20110;-90
2022/07/16 05:27:54;;;;;;;9.80;8.48;;;33.40;99.90;;;;;;4974743;28;20371;-90
2022/07/16 05:30:21;;;;;;;8.98;8.27;;;33.10;99.90;;;;;;4958750;28;20031;-90
2022/07/16 05:32:50;;;;;;;10.02;9.13;;;33.20;99.90;;;;;;4958572;28;20113;-92
2022/07/16 05:35:18;;;;;;;10.10;9.40;;;33.30;99.90;;;;;;4958638;28;20166;-93
2022/07/16 05:37:45;;;;;;;10.43;9.45;;;34.50;99.90;;;;;;4958433;28;20039;-91
2022/07/16 05:40:12;;;;;;;10.75;9.95;;;34.20;99.90;;;;;;4958560;28;20034;-91
2022/07/16 05:42:39;;;;;;;10.18;9.07;;;34.20;99.90;;;;;;4958567;28;20031;-93
2022/07/16 05:45:06;;;;;;;10.48;9.60;;;34.60;99.90;;;;;;4959083;28;20487;-92
2022/07/16 05:47:33;;;;;;;10.57;9.65;;;34.30;99.90;;;;;;4958570;28;20058;-91
2022/07/16 05:50:02;;;;;;;9.77;9.05;;;34.40;99.90;;;;;;4959104;28;20023;-90
2022/07/16 05:52:29;;;;;;;9.93;9.35;;;33.90;99.90;;;;;;4959032;28;20035;-92
2022/07/16 05:54:55;;;;;;;10.57;9.95;;;33.90;99.90;;;;;;4958627;28;20396;-92
2022/07/16 05:57:22;;;;;;;10.68;9.93;;;34.10;99.90;;;;;;4958247;28;20046;-90
2022/07/16 05:59:49;;;;;;;10.43;9.73;;;34.80;99.90;;;;;;4958401;28;20058;-91
2022/07/16 06:02:15;;;;;;;10.15;9.52;;;35.00;99.90;;;;;;4954744;29;20047;-90
2022/07/16 06:04:42;;;;;;;10.35;9.55;;;34.00;99.90;;;;;;4970966;28;20039;-89
2022/07/16 06:07:09;;;;;;;10.88;10.10;;;33.70;99.90;;;;;;4971122;28;20027;-92
2022/07/16 06:09:35;;;;;;;10.68;9.98;;;34.10;99.90;;;;;;4939403;29;20028;-90
2022/07/16 06:12:02;;;;;;;10.82;10.23;;;34.30;99.90;;;;;;4970917;28;20061;-92
2022/07/16 06:14:29;;;;;;;10.50;9.90;;;34.90;99.90;;;;;;4938949;29;20496;-92
2022/07/16 06:16:58;;;;;;;10.68;10.07;;;34.80;99.90;;;;;;4970919;28;20039;-92
2022/07/16 06:19:25;;;;;;;11.07;10.38;;;34.70;99.90;;;;;;4938961;29;20077;-91
2022/07/16 06:21:52;;;;;;;11.05;9.45;;;35.10;99.90;;;;;;4939103;29;20143;-92
2022/07/16 06:24:18;;;;;;;10.98;10.18;;;34.90;99.90;;;;;;4970758;28;20027;-92
2022/07/16 06:26:48;;;;;;;10.95;10.25;;;35.10;99.90;;;;;;4939064;29;20477;-91
2022/07/16 06:29:16;;;;;;;11.55;10.85;;;34.80;99.90;;;;;;4938816;29;20046;-92
2022/07/16 06:31:43;;;;;;;11.43;10.68;;;34.80;99.90;;;;;;4938947;29;20038;-90
2022/07/16 06:34:10;;;;;;;11.27;10.57;;;35.10;99.90;;;;;;4939059;29;20121;-92
2022/07/16 06:36:37;;;;;;;11.25;10.43;;;35.50;99.90;;;;;;4938928;29;20397;-92
2022/07/16 06:39:04;;;;;;;11.35;10.63;;;35.90;99.90;;;;;;4942263;29;20035;-89
2022/07/16 06:41:31;;;;;;;11.35;10.45;;;35.40;99.90;;;;;;4940206;29;20031;-91
2022/07/16 06:43:58;;;;;;;11.45;10.52;;;35.30;99.90;;;;;;4940612;29;20035;-91
2022/07/16 06:46:25;;;;;;;11.77;10.95;;;35.90;99.90;;;;;;4938924;29;20055;-91
2022/07/16 06:48:52;;;;;;;11.45;10.70;;;36.10;99.90;;;;;;4954965;29;20035;-91
2022/07/16 06:51:19;;;;;;;10.90;10.30;;;36.00;99.90;;;;;;4938803;29;20114;-91
2022/07/16 06:53:49;;;;;;;11.30;10.70;;;35.50;99.90;;;;;;4939934;29;20034;-91
2022/07/16 06:56:16;;;;;;;11.65;10.73;;;35.50;99.90;;;;;;4940879;29;20043;-92
2022/07/16 06:58:43;;;;;;;10.95;10.30;;;35.50;99.90;;;;;;4942975;29;20031;-93
2022/07/16 07:01:11;;;;;;;11.52;10.85;;;35.40;99.90;;;;;;4952643;28;20051;-91
2022/07/16 07:03:39;;;;;;;11.52;10.50;;;36.00;99.90;;;;;;4961817;28;20081;-94
2022/07/16 07:06:06;;;;;;;11.70;11.00;;;35.60;99.90;;;;;;4961015;28;20034;-93
2022/07/16 07:08:33;;;;;;;11.30;10.70;;;36.20;99.90;;;;;;4961135;28;20026;-93
2022/07/16 07:11:00;;;;;;;12.38;11.27;;;36.00;99.90;;;;;;4961109;28;20114;-93
2022/07/16 07:13:32;;;;;;;12.50;11.20;;;36.80;99.90;;;;;;4961415;28;20500;-92
2022/07/16 07:15:59;;;;;;;12.32;11.20;;;36.40;99.90;;;;;;4961345;28;20026;-93
2022/07/16 07:18:29;;;;;;;11.77;11.07;;;36.10;99.90;;;;;;4981440;28;20034;-92
2022/07/16 07:20:57;;;;;;;11.77;11.02;;;36.60;99.90;;;;;;4966289;28;20062;-94
2022/07/16 07:23:23;;;;;;;12.32;11.10;;;37.10;99.90;;;;;;4963054;28;20496;-93
2022/07/16 07:25:50;;;;;;;12.15;11.30;;;37.10;99.90;;;;;;4960809;28;20066;-94
2022/07/16 07:28:17;;;;;;;10.82;10.23;;;37.30;99.90;;;;;;4960596;28;20560;-93
2022/07/16 07:30:44;;;;;;;11.80;10.77;;;37.00;99.90;;;;;;4960989;28;20058;-93
2022/07/16 07:33:14;;;;;;;11.80;11.20;;;37.10;99.90;;;;;;4960604;28;20038;-92
2022/07/16 07:35:41;;;;;;;12.02;10.80;;;36.70;99.90;;;;;;4961674;28;20050;-93
2022/07/16 07:38:08;;;;;;;11.18;10.57;;;36.60;99.90;;;;;;4961261;28;20066;-93
2022/07/16 07:40:56;;;;;;;11.77;11.07;;;36.00;99.90;;;;;;4960612;28;20037;-93
2022/07/16 07:43:23;;;;;;;11.18;10.50;;;35.50;99.90;;;;;;4961096;28;20030;-93
2022/07/16 07:46:03;;;;;;;11.60;11.00;;;35.70;99.90;;;;;;4961222;28;20026;-93
2022/07/16 07:48:30;;;;;;;11.73;11.07;;;36.80;99.90;;;;;;4960264;28;20121;-93
2022/07/16 07:50:57;;;;;;;11.38;10.70;;;36.40;99.10;;;;;;4961568;28;20092;-95
2022/07/16 07:53:24;;;;;;;11.90;11.10;;;36.70;99.60;;;;;;4962116;28;20128;-93
2022/07/16 07:55:51;;;;;;;11.73;11.02;;;36.70;99.20;;;;;;4961977;28;20027;-93
2022/07/16 07:58:19;;;;;;;11.80;11.15;;;36.50;99.50;;;;;;4960119;28;20039;-93
2022/07/16 08:00:45;;;;;;;12.63;11.38;;;35.90;98.80;;;;;;4954069;28;20454;-94
2022/07/16 08:03:12;;;;;;;12.68;11.88;;;35.70;99.30;;;;;;4940715;29;20028;-93
2022/07/16 08:05:39;;;;;;;11.25;10.65;;;35.90;99.30;;;;;;4940970;29;20019;-94
2022/07/16 08:08:06;;;;;;;12.18;10.82;;;35.90;99.30;;;;;;4941138;29;20114;-93
2022/07/16 08:10:33;;;;;;;11.63;10.93;;;36.60;97.90;;;;;;4940800;29;20034;-93
2022/07/16 08:13:00;;;;;;;11.32;10.73;;;36.20;98.20;;;;;;4940631;29;20038;-93
2022/07/16 08:15:26;;;;;;;11.60;10.82;;;36.60;97.90;;;;;;4940619;29;20405;-92
2022/07/16 08:17:53;;;;;;;12.23;11.43;;;36.10;98.00;;;;;;4940402;29;20492;-92
2022/07/16 08:20:20;;;;;;;11.75;10.95;;;36.10;98.10;;;;;;4940804;29;20054;-93
2022/07/16 08:22:56;;;;;;;11.70;10.90;;;36.20;98.30;;;;;;4941438;29;20036;-94
2022/07/16 08:28:08;;;;;;;11.75;10.95;;;36.30;98.00;;;;;;4940021;29;20024;-93
2022/07/16 08:30:35;;;;;;;11.80;11.10;;;36.00;98.00;;;;;;4940394;29;20032;-92
2022/07/16 08:33:02;;;;;;;11.27;10.23;;;36.50;97.90;;;;;;4940321;29;20027;-93
2022/07/16 08:35:32;;;;;;;10.98;10.38;;;36.10;97.90;;;;;;4940057;29;20135;-93
2022/07/16 08:37:59;;;;;;;11.32;10.60;;;36.20;98.10;;;;;;4942694;29;20090;-92
2022/07/16 08:40:25;;;;;;;10.95;10.25;;;36.10;97.80;;;;;;4941861;29;20059;-93
2022/07/16 08:42:55;;;;;;;10.88;10.27;;;36.40;97.10;;;;;;4940399;29;20042;-92
2022/07/16 08:45:23;;;;;;;11.02;10.32;;;35.50;96.80;;;;;;4939983;29;20034;-92
2022/07/16 08:47:52;;;;;;;11.50;10.90;;;35.70;97.70;;;;;;4937067;29;20119;-91
2022/07/16 08:50:20;;;;;;;12.07;11.43;;;35.90;98.30;;;;;;4920439;29;20075;-92
2022/07/16 08:52:51;;;;;;;11.13;10.45;;;36.10;98.20;;;;;;4920720;29;20059;-91
2022/07/16 08:55:22;;;;;;;11.50;10.73;;;36.20;98.20;;;;;;4936379;29;20027;-91
2022/07/16 08:57:49;;;;;;;10.50;9.82;;;36.70;97.40;;;;;;4920374;29;20039;-93
2022/07/16 09:00:18;;;;;;;11.10;10.45;;;36.70;98.00;;;;;;4909210;28;20032;-92
2022/07/16 09:02:46;;;;;;;11.13;10.43;;;36.50;98.30;;;;;;4952649;28;20030;-92
2022/07/16 09:05:13;;;;;;;11.13;10.50;;;36.50;98.70;;;;;;4942640;28;20030;-91
2022/07/16 09:07:39;;;;;;;12.00;11.15;;;36.50;99.10;;;;;;4943684;28;20121;-91
2022/07/16 09:10:09;;;;;;;11.18;10.50;;;36.40;99.40;;;;;;4942557;28;20023;-91
2022/07/16 09:12:38;;;;;;;10.88;10.27;;;35.90;99.90;;;;;;4946288;28;20472;-92
2022/07/16 09:15:32;;;;;;;10.90;10.20;;;35.80;99.90;;;;;;4977727;28;20502;-91
2022/07/16 09:18:21;;;;;;;10.70;10.15;;;36.00;99.70;;;;;;4942300;28;20049;-91
2022/07/16 09:20:50;;;;;;;11.38;10.43;;;35.80;99.80;;;;;;4944962;28;20027;-91
2022/07/16 09:23:35;;;;;;;11.35;10.68;;;36.30;99.40;;;;;;4950651;28;20062;-91
2022/07/16 09:26:05;;;;;;;24.92;11.13;;;36.20;99.30;;;;;;4958394;28;20424;-91
2022/07/16 09:28:45;;;;;;;10.63;10.10;;;36.00;99.50;;;;;;4942392;28;20041;-91
2022/07/16 09:31:33;;;;;;;11.25;10.38;;;35.40;99.90;;;;;;4942282;28;20041;-91
2022/07/16 09:34:09;;;;;;;10.65;10.02;;;35.10;99.80;;;;;;4942026;28;20126;-90
2022/07/16 09:36:37;;;;;;;10.85;10.23;;;35.70;99.50;;;;;;4943015;28;20026;-90
2022/07/16 09:39:08;;;;;;;10.38;9.80;;;35.60;99.90;;;;;;4961329;28;20061;-91
2022/07/16 09:41:44;;;;;;;10.30;9.73;;;35.40;99.90;;;;;;4977271;28;20022;-93
2022/07/16 09:44:16;;;;;;;10.35;9.80;;;35.00;99.90;;;;;;4977203;28;20520;-92
2022/07/16 09:47:01;;;;;;;10.82;9.88;;;35.00;99.90;;;;;;4959363;28;20027;-90
2022/07/16 09:49:30;;;;;;;10.13;9.63;;;34.80;99.90;;;;;;4942195;28;20023;-91
2022/07/16 09:51:57;;;;;;;10.00;9.50;;;34.30;99.90;;;;;;4952862;28;20054;-91
2022/07/16 09:54:32;;;;;;;10.32;9.57;;;33.90;99.80;;;;;;4961217;28;20034;-91
2022/07/16 09:57:18;;;;;;;10.63;10.02;;;34.00;99.40;;;;;;4953201;28;20041;-90
2022/07/16 09:59:47;;;;;;;11.40;10.52;;;34.40;99.40;;;;;;4961519;28;20177;-90
2022/07/16 10:02:14;;;;;;;10.43;9.93;;;34.80;98.80;;;;;;4939611;29;20067;-90
2022/07/16 10:04:41;;;;;;;10.73;10.13;;;34.30;98.70;;;;;;4920570;29;20036;-91
2022/07/16 10:07:07;;;;;;;10.45;10.00;;;34.50;99.00;;;;;;4938660;29;20031;-90
2022/07/16 10:09:34;;;;;;;10.73;9.80;;;34.60;98.30;;;;;;4922612;29;20109;-93
2022/07/16 10:12:08;;;;;;;10.70;9.88;;;34.20;98.60;;;;;;4938833;29;20122;-92
2022/07/16 10:14:41;;;;;;;10.70;9.90;;;34.30;98.90;;;;;;4933301;29;20118;-93
2022/07/16 10:17:39;;;;;;;10.07;9.50;;;34.40;99.70;;;;;;4950436;29;20043;-90
2022/07/16 10:20:17;;;;;;;9.95;9.45;;;34.80;98.80;;;;;;4871487;29;20040;-91
2022/07/16 10:22:47;;;;;;;10.93;10.07;;;35.00;98.80;;;;;;4869947;29;20033;-91
2022/07/16 10:25:23;;;;;;;10.00;9.50;;;34.90;99.80;;;;;;4863300;29;20188;-91
2022/07/16 10:27:52;;;;;;;9.80;9.30;;;35.00;99.90;;;;;;4862793;29;20040;-91
2022/07/16 10:30:26;;;;;;;10.30;9.60;;;34.90;99.50;;;;;;4862780;29;20116;-90
2022/07/16 10:33:03;;;;;;;10.13;9.52;;;34.80;99.90;;;;;;4866179;29;20092;-90
2022/07/16 10:36:04;;;;;;;10.38;9.80;;;35.00;99.40;;;;;;4866257;29;20044;-91
2022/07/16 10:38:31;;;;;;;9.77;9.30;;;35.10;99.10;;;;;;4866116;29;20048;-90
2022/07/16 10:41:15;;;;;;;10.93;10.13;;;35.00;98.10;;;;;;4866031;29;20029;-92
2022/07/16 10:44:03;;;;;;;10.40;9.95;;;34.80;97.80;;;;;;4866285;29;20041;-91
2022/07/16 10:46:31;;;;;;;11.00;10.32;;;34.30;97.90;;;;;;4865768;29;20035;-91
2022/07/16 10:48:58;;;;;;;10.73;10.13;;;34.80;98.10;;;;;;4865946;29;20025;-89
2022/07/16 10:51:25;;;;;;;10.63;9.90;;;35.00;97.70;;;;;;4866239;29;20069;-90
2022/07/16 10:53:57;;;;;;;10.63;10.02;;;35.30;96.90;;;;;;4866001;29;20036;-91
2022/07/16 10:56:36;;;;;;;10.40;9.90;;;35.90;97.20;;;;;;4900090;29;20040;-91
2022/07/16 10:59:10;;;;;;;10.30;9.80;;;36.20;95.90;;;;;;4923137;29;20047;-90
2022/07/16 11:01:38;;;;;;;10.90;10.23;;;35.70;95.30;;;;;;4945151;29;20086;-91
2022/07/16 11:04:05;;;;;;;10.07;9.68;;;35.40;95.30;;;;;;4941788;29;20031;-91
2022/07/16 11:06:33;;;;;;;10.52;10.02;;;35.10;94.90;;;;;;4941771;29;20035;-92
2022/07/16 11:09:01;;;;;;;10.50;9.80;;;34.70;94.80;;;;;;4941872;29;20130;-90
2022/07/16 11:11:39;;;;;;;10.65;10.00;;;34.70;95.30;;;;;;4941492;29;20485;-91
2022/07/16 11:14:11;;;;;;;10.60;10.10;;;34.60;95.20;;;;;;4943524;29;20118;-92
2022/07/16 11:16:52;;;;;;;10.40;9.90;;;34.20;95.40;;;;;;4959933;28;20085;-92
